RYR9JW LEZL-LPPT
Flight info
| Callsign | RYR9JW |
|---|---|
| Flight time | 0h 46m |
| Altitude | 37000 |
| Route | ONUBA N747 MINTA DCT VATZI |
| Aircraft | B738/M-SDE3FGILRWY/SB1 |
Departure
| Time | 2026-04-15 15:01 |
|---|---|
| Airport | Seville Airport (LEZL) |
Arrival
| Time | 2026-04-15 15:47 |
|---|---|
| Airport | Lisbon Humberto Delgado Airport (LPPT) |
| Time | Latitude | Longitude | Altitude | Speed | Heading |
|---|---|---|---|---|---|
| 2026-04-15 13:59 | 37.42422 | -5.89637 | 93 ft | 0 kts | 94° |
| 2026-04-15 14:52 | 37.42421 | -5.89635 | 93 ft | 0 kts | 101° |
| 2026-04-15 14:52 | 37.42417 | -5.89633 | 93 ft | 1 kts | 149° |
| 2026-04-15 14:52 | 37.42412 | -5.89639 | 91 ft | 1 kts | 225° |
| 2026-04-15 14:53 | 37.42401 | -5.89660 | 93 ft | 4 kts | 231° |
| 2026-04-15 14:53 | 37.42365 | -5.89673 | 95 ft | 7 kts | 192° |
| 2026-04-15 14:53 | 37.42306 | -5.89727 | 93 ft | 13 kts | 216° |
| 2026-04-15 14:53 | 37.42230 | -5.89802 | 93 ft | 14 kts | 224° |
| 2026-04-15 14:54 | 37.42163 | -5.89885 | 93 ft | 13 kts | 225° |
| 2026-04-15 14:54 | 37.42099 | -5.89965 | 94 ft | 13 kts | 225° |
| 2026-04-15 14:54 | 37.42053 | -5.90056 | 94 ft | 12 kts | 256° |
| 2026-04-15 14:54 | 37.42011 | -5.90095 | 95 ft | 7 kts | 188° |
| 2026-04-15 14:55 | 37.41980 | -5.90145 | 94 ft | 12 kts | 268° |
| 2026-04-15 14:55 | 37.41979 | -5.90308 | 94 ft | 25 kts | 270° |
| 2026-04-15 14:55 | 37.41979 | -5.90549 | 92 ft | 27 kts | 270° |
| 2026-04-15 14:55 | 37.41979 | -5.90784 | 91 ft | 22 kts | 270° |
| 2026-04-15 14:56 | 37.41979 | -5.90914 | 90 ft | 12 kts | 269° |
| 2026-04-15 14:56 | 37.41978 | -5.91032 | 89 ft | 16 kts | 269° |
| 2026-04-15 14:56 | 37.41977 | -5.91192 | 88 ft | 18 kts | 270° |
| 2026-04-15 14:56 | 37.41959 | -5.91287 | 90 ft | 3 kts | 233° |
| 2026-04-15 14:57 | 37.41955 | -5.91291 | 91 ft | 2 kts | 225° |
| 2026-04-15 14:57 | 37.41954 | -5.91292 | 91 ft | 0 kts | 224° |
| 2026-04-15 14:59 | 37.41953 | -5.91294 | 91 ft | 2 kts | 223° |
| 2026-04-15 14:59 | 37.41914 | -5.91317 | 88 ft | 9 kts | 185° |
| 2026-04-15 14:59 | 37.41864 | -5.91282 | 91 ft | 10 kts | 131° |
| 2026-04-15 14:59 | 37.41814 | -5.91195 | 89 ft | 14 kts | 127° |
| 2026-04-15 15:00 | 37.41788 | -5.91153 | 91 ft | 6 kts | 90° |
| 2026-04-15 15:00 | 37.41788 | -5.91138 | 89 ft | 2 kts | 89° |
| 2026-04-15 15:00 | 37.41787 | -5.90902 | 95 ft | 69 kts | 90° |
| 2026-04-15 15:00 | 37.41792 | -5.89908 | 99 ft | 154 kts | 90° |
| 2026-04-15 15:01 | 37.41796 | -5.88488 | 849 ft | 164 kts | 88° |
| 2026-04-15 15:01 | 37.41807 | -5.87031 | 1922 ft | 164 kts | 90° |
| 2026-04-15 15:01 | 37.41798 | -5.85493 | 2732 ft | 193 kts | 91° |
| 2026-04-15 15:01 | 37.41694 | -5.83683 | 3309 ft | 217 kts | 104° |
| 2026-04-15 15:02 | 37.40933 | -5.82018 | 4119 ft | 223 kts | 137° |
| 2026-04-15 15:02 | 37.39544 | -5.81132 | 5016 ft | 231 kts | 172° |
| 2026-04-15 15:02 | 37.37956 | -5.81398 | 6043 ft | 235 kts | 205° |
| 2026-04-15 15:02 | 37.36662 | -5.82671 | 7042 ft | 240 kts | 228° |
| 2026-04-15 15:03 | 37.35533 | -5.84221 | 8156 ft | 240 kts | 229° |
| 2026-04-15 15:03 | 37.34391 | -5.85784 | 9207 ft | 245 kts | 229° |
| 2026-04-15 15:03 | 37.33221 | -5.87365 | 10229 ft | 250 kts | 228° |
| 2026-04-15 15:03 | 37.32020 | -5.88969 | 11183 ft | 254 kts | 228° |
| 2026-04-15 15:04 | 37.30796 | -5.90588 | 12192 ft | 257 kts | 229° |
| 2026-04-15 15:04 | 37.29552 | -5.92221 | 13240 ft | 260 kts | 229° |
| 2026-04-15 15:04 | 37.28289 | -5.93871 | 14274 ft | 264 kts | 229° |
| 2026-04-15 15:04 | 37.27441 | -5.94975 | 14910 ft | 267 kts | 229° |
| 2026-04-15 15:05 | 37.26128 | -5.96685 | 15712 ft | 281 kts | 229° |
| 2026-04-15 15:05 | 37.24697 | -5.98563 | 15993 ft | 314 kts | 231° |
| 2026-04-15 15:05 | 37.23479 | -6.00943 | 16457 ft | 333 kts | 250° |
| 2026-04-15 15:05 | 37.22959 | -6.03789 | 17278 ft | 339 kts | 269° |
| 2026-04-15 15:06 | 37.23675 | -6.09688 | 19129 ft | 347 kts | 284° |
| 2026-04-15 15:06 | 37.24213 | -6.12649 | 20071 ft | 349 kts | 284° |
| 2026-04-15 15:06 | 37.24750 | -6.15611 | 21100 ft | 348 kts | 283° |
| 2026-04-15 15:07 | 37.25277 | -6.18585 | 22078 ft | 350 kts | 283° |
| 2026-04-15 15:07 | 37.25797 | -6.21574 | 22974 ft | 353 kts | 282° |
| 2026-04-15 15:07 | 37.26317 | -6.24611 | 23847 ft | 357 kts | 282° |
| 2026-04-15 15:07 | 37.26835 | -6.27673 | 24576 ft | 360 kts | 282° |
| 2026-04-15 15:08 | 37.27354 | -6.30758 | 25297 ft | 363 kts | 282° |
| 2026-04-15 15:08 | 37.27878 | -6.33877 | 25981 ft | 367 kts | 281° |
| 2026-04-15 15:08 | 37.28406 | -6.37026 | 26663 ft | 371 kts | 281° |
| 2026-04-15 15:08 | 37.28940 | -6.40218 | 27286 ft | 376 kts | 281° |
| 2026-04-15 15:09 | 37.29477 | -6.43446 | 27919 ft | 380 kts | 280° |
| 2026-04-15 15:09 | 37.29635 | -6.46755 | 28530 ft | 383 kts | 264° |
| 2026-04-15 15:09 | 37.29163 | -6.50051 | 29224 ft | 385 kts | 258° |
| 2026-04-15 15:09 | 37.28585 | -6.53348 | 29869 ft | 388 kts | 257° |
| 2026-04-15 15:10 | 37.27992 | -6.56665 | 30507 ft | 389 kts | 257° |
| 2026-04-15 15:10 | 37.27408 | -6.59987 | 31049 ft | 390 kts | 258° |
| 2026-04-15 15:10 | 37.26840 | -6.63287 | 31166 ft | 393 kts | 258° |
| 2026-04-15 15:10 | 37.26276 | -6.66623 | 31188 ft | 389 kts | 258° |
| 2026-04-15 15:11 | 37.25173 | -6.73191 | 31201 ft | 384 kts | 258° |
| 2026-04-15 15:11 | 37.24013 | -6.79804 | 31207 ft | 386 kts | 257° |
| 2026-04-15 15:12 | 37.22767 | -6.86329 | 31212 ft | 387 kts | 256° |
| 2026-04-15 15:12 | 37.21515 | -6.92899 | 31204 ft | 387 kts | 256° |
| 2026-04-15 15:13 | 37.20272 | -6.99459 | 31204 ft | 386 kts | 256° |
| 2026-04-15 15:13 | 37.19028 | -7.05996 | 31202 ft | 385 kts | 256° |
| 2026-04-15 15:14 | 37.17783 | -7.12507 | 31204 ft | 383 kts | 256° |
| 2026-04-15 15:14 | 37.16537 | -7.19000 | 31210 ft | 383 kts | 256° |
| 2026-04-15 15:15 | 37.15312 | -7.25499 | 31209 ft | 383 kts | 256° |
| 2026-04-15 15:15 | 37.14090 | -7.32002 | 31213 ft | 383 kts | 256° |
| 2026-04-15 15:16 | 37.13616 | -7.38620 | 31219 ft | 385 kts | 274° |
| 2026-04-15 15:16 | 37.14995 | -7.45117 | 31231 ft | 389 kts | 289° |
| 2026-04-15 15:17 | 37.17068 | -7.51407 | 31215 ft | 390 kts | 290° |
| 2026-04-15 15:17 | 37.19149 | -7.57681 | 31217 ft | 390 kts | 290° |
| 2026-04-15 15:18 | 37.21208 | -7.63989 | 31221 ft | 390 kts | 289° |
| 2026-04-15 15:18 | 37.23271 | -7.70387 | 31242 ft | 408 kts | 289° |
| 2026-04-15 15:19 | 37.24349 | -7.73747 | 31232 ft | 419 kts | 289° |
| 2026-04-15 15:19 | 37.25444 | -7.77162 | 31226 ft | 423 kts | 289° |
| 2026-04-15 15:19 | 37.27632 | -7.83981 | 31213 ft | 420 kts | 289° |
| 2026-04-15 15:20 | 37.29806 | -7.90774 | 31214 ft | 418 kts | 289° |
| 2026-04-15 15:20 | 37.31962 | -7.97532 | 31219 ft | 416 kts | 289° |
| 2026-04-15 15:21 | 37.34108 | -8.04276 | 31221 ft | 415 kts | 289° |
| 2026-04-15 15:21 | 37.36249 | -8.11024 | 30883 ft | 417 kts | 289° |
| 2026-04-15 15:22 | 37.37311 | -8.14374 | 30499 ft | 408 kts | 289° |
| 2026-04-15 15:22 | 37.38353 | -8.17662 | 29992 ft | 401 kts | 289° |
| 2026-04-15 15:22 | 37.39376 | -8.20894 | 29495 ft | 394 kts | 290° |
| 2026-04-15 15:22 | 37.40378 | -8.24066 | 29032 ft | 387 kts | 290° |
| 2026-04-15 15:23 | 37.41363 | -8.27189 | 28563 ft | 382 kts | 290° |
| 2026-04-15 15:23 | 37.42333 | -8.30269 | 28106 ft | 376 kts | 290° |
| 2026-04-15 15:23 | 37.43291 | -8.33315 | 27684 ft | 374 kts | 290° |
| 2026-04-15 15:23 | 37.44259 | -8.36399 | 27253 ft | 387 kts | 290° |
| 2026-04-15 15:24 | 37.45259 | -8.39589 | 26791 ft | 395 kts | 290° |
| 2026-04-15 15:24 | 37.46258 | -8.42776 | 26304 ft | 388 kts | 290° |
| 2026-04-15 15:24 | 37.47241 | -8.45910 | 25851 ft | 381 kts | 290° |
| 2026-04-15 15:24 | 37.48207 | -8.48992 | 25391 ft | 375 kts | 290° |
| 2026-04-15 15:25 | 37.49157 | -8.52029 | 24952 ft | 370 kts | 290° |
| 2026-04-15 15:25 | 37.50093 | -8.55023 | 24501 ft | 366 kts | 290° |
| 2026-04-15 15:25 | 37.51018 | -8.57989 | 24062 ft | 361 kts | 290° |
| 2026-04-15 15:25 | 37.51932 | -8.60925 | 23581 ft | 360 kts | 290° |
| 2026-04-15 15:26 | 37.52841 | -8.63845 | 23103 ft | 357 kts | 290° |
| 2026-04-15 15:26 | 37.53747 | -8.66757 | 22549 ft | 355 kts | 290° |
| 2026-04-15 15:26 | 37.54641 | -8.69635 | 22117 ft | 350 kts | 290° |
| 2026-04-15 15:26 | 37.55510 | -8.72434 | 21708 ft | 345 kts | 290° |
| 2026-04-15 15:27 | 37.56377 | -8.75227 | 21307 ft | 340 kts | 290° |
| 2026-04-15 15:27 | 37.57234 | -8.77992 | 20919 ft | 336 kts | 290° |
| 2026-04-15 15:27 | 37.58077 | -8.80719 | 20551 ft | 332 kts | 290° |
| 2026-04-15 15:27 | 37.58933 | -8.83404 | 20172 ft | 330 kts | 295° |
| 2026-04-15 15:28 | 37.60310 | -8.85715 | 19791 ft | 333 kts | 316° |
| 2026-04-15 15:28 | 37.62238 | -8.87326 | 19440 ft | 338 kts | 334° |
| 2026-04-15 15:28 | 37.64492 | -8.88359 | 19046 ft | 350 kts | 339° |
| 2026-04-15 15:28 | 37.66825 | -8.89294 | 18650 ft | 352 kts | 340° |
| 2026-04-15 15:29 | 37.69158 | -8.90198 | 18200 ft | 348 kts | 340° |
| 2026-04-15 15:29 | 37.71452 | -8.91090 | 17787 ft | 342 kts | 340° |
| 2026-04-15 15:29 | 37.73703 | -8.91979 | 17395 ft | 337 kts | 340° |
| 2026-04-15 15:29 | 37.75929 | -8.92870 | 17020 ft | 335 kts | 340° |
| 2026-04-15 15:30 | 37.78201 | -8.93790 | 16663 ft | 354 kts | 340° |
| 2026-04-15 15:30 | 37.80586 | -8.94742 | 16266 ft | 361 kts | 342° |
| 2026-04-15 15:30 | 37.83068 | -8.95228 | 15749 ft | 363 kts | 356° |
| 2026-04-15 15:30 | 37.85582 | -8.95047 | 15193 ft | 361 kts | 3° |
| 2026-04-15 15:31 | 37.88078 | -8.94729 | 14577 ft | 360 kts | 3° |
| 2026-04-15 15:31 | 37.90552 | -8.94409 | 14027 ft | 357 kts | 4° |
| 2026-04-15 15:31 | 37.93005 | -8.94099 | 13539 ft | 352 kts | 4° |
| 2026-04-15 15:31 | 37.95431 | -8.93801 | 13125 ft | 348 kts | 3° |
| 2026-04-15 15:32 | 37.97840 | -8.93514 | 12726 ft | 346 kts | 3° |
| 2026-04-15 15:32 | 38.00225 | -8.93234 | 12335 ft | 343 kts | 3° |
| 2026-04-15 15:32 | 38.02598 | -8.92958 | 11952 ft | 344 kts | 3° |
| 2026-04-15 15:32 | 38.04994 | -8.92682 | 11569 ft | 346 kts | 3° |
| 2026-04-15 15:33 | 38.07392 | -8.92404 | 11171 ft | 344 kts | 2° |
| 2026-04-15 15:33 | 38.09766 | -8.92130 | 10821 ft | 341 kts | 3° |
| 2026-04-15 15:33 | 38.12098 | -8.91859 | 10667 ft | 334 kts | 3° |
| 2026-04-15 15:33 | 38.14384 | -8.91594 | 10513 ft | 324 kts | 3° |
| 2026-04-15 15:34 | 38.16580 | -8.91339 | 10356 ft | 311 kts | 4° |
| 2026-04-15 15:34 | 38.18693 | -8.91094 | 10146 ft | 301 kts | 3° |
| 2026-04-15 15:34 | 38.20758 | -8.90855 | 9836 ft | 295 kts | 3° |
| 2026-04-15 15:34 | 38.22786 | -8.90621 | 9537 ft | 290 kts | 4° |
| 2026-04-15 15:35 | 38.24779 | -8.90390 | 9247 ft | 285 kts | 3° |
| 2026-04-15 15:35 | 38.26743 | -8.90162 | 8962 ft | 281 kts | 3° |
| 2026-04-15 15:35 | 38.28673 | -8.89938 | 8714 ft | 276 kts | 4° |
| 2026-04-15 15:35 | 38.30546 | -8.89726 | 8595 ft | 266 kts | 1° |
| 2026-04-15 15:36 | 38.32308 | -8.90101 | 8415 ft | 255 kts | 332° |
| 2026-04-15 15:36 | 38.33740 | -8.91364 | 8187 ft | 248 kts | 316° |
| 2026-04-15 15:36 | 38.34979 | -8.92873 | 7955 ft | 245 kts | 314° |
| 2026-04-15 15:36 | 38.36186 | -8.94389 | 7707 ft | 243 kts | 314° |
| 2026-04-15 15:37 | 38.37394 | -8.95891 | 7522 ft | 239 kts | 315° |
| 2026-04-15 15:37 | 38.38572 | -8.97349 | 7409 ft | 236 kts | 313° |
| 2026-04-15 15:37 | 38.39428 | -8.99099 | 7305 ft | 236 kts | 283° |
| 2026-04-15 15:37 | 38.39411 | -9.01137 | 7278 ft | 236 kts | 254° |
| 2026-04-15 15:38 | 38.38697 | -9.03022 | 7280 ft | 239 kts | 238° |
| 2026-04-15 15:38 | 38.37771 | -9.04788 | 7278 ft | 240 kts | 236° |
| 2026-04-15 15:38 | 38.36826 | -9.06550 | 7271 ft | 241 kts | 237° |
| 2026-04-15 15:38 | 38.36084 | -9.08433 | 7256 ft | 239 kts | 261° |
| 2026-04-15 15:39 | 38.36353 | -9.10471 | 7254 ft | 239 kts | 297° |
| 2026-04-15 15:39 | 38.37490 | -9.12051 | 7060 ft | 246 kts | 322° |
| 2026-04-15 15:39 | 38.38987 | -9.13094 | 6860 ft | 245 kts | 334° |
| 2026-04-15 15:39 | 38.40554 | -9.13915 | 6651 ft | 242 kts | 336° |
| 2026-04-15 15:40 | 38.42113 | -9.14697 | 6440 ft | 240 kts | 337° |
| 2026-04-15 15:40 | 38.43669 | -9.15484 | 6238 ft | 240 kts | 336° |
| 2026-04-15 15:40 | 38.45219 | -9.16280 | 6047 ft | 240 kts | 336° |
| 2026-04-15 15:40 | 38.46768 | -9.17085 | 5859 ft | 241 kts | 336° |
| 2026-04-15 15:41 | 38.48318 | -9.17897 | 5649 ft | 241 kts | 336° |
| 2026-04-15 15:41 | 38.49863 | -9.18710 | 5448 ft | 240 kts | 336° |
| 2026-04-15 15:41 | 38.51398 | -9.19520 | 5254 ft | 237 kts | 336° |
| 2026-04-15 15:41 | 38.52907 | -9.20319 | 5058 ft | 233 kts | 336° |
| 2026-04-15 15:42 | 38.54391 | -9.21107 | 4841 ft | 229 kts | 335° |
| 2026-04-15 15:42 | 38.55869 | -9.21894 | 4494 ft | 228 kts | 336° |
| 2026-04-15 15:42 | 38.57297 | -9.22653 | 4250 ft | 215 kts | 337° |
| 2026-04-15 15:42 | 38.58635 | -9.23341 | 4048 ft | 201 kts | 343° |
| 2026-04-15 15:43 | 38.59972 | -9.23279 | 3887 ft | 192 kts | 20° |
| 2026-04-15 15:43 | 38.61184 | -9.22621 | 3649 ft | 187 kts | 19° |
| 2026-04-15 15:43 | 38.62387 | -9.22027 | 3416 ft | 183 kts | 20° |
| 2026-04-15 15:43 | 38.63561 | -9.21416 | 3155 ft | 182 kts | 20° |
| 2026-04-15 15:44 | 38.64719 | -9.20796 | 2918 ft | 179 kts | 21° |
| 2026-04-15 15:44 | 38.65864 | -9.20183 | 2665 ft | 177 kts | 20° |
| 2026-04-15 15:44 | 38.66966 | -9.19590 | 2442 ft | 166 kts | 20° |
| 2026-04-15 15:44 | 38.68003 | -9.19031 | 2189 ft | 158 kts | 20° |
| 2026-04-15 15:45 | 38.68989 | -9.18503 | 1993 ft | 149 kts | 19° |
| 2026-04-15 15:45 | 38.69943 | -9.17990 | 1803 ft | 150 kts | 19° |
| 2026-04-15 15:45 | 38.70862 | -9.17487 | 1800 ft | 135 kts | 20° |
| 2026-04-15 15:45 | 38.71706 | -9.17033 | 1524 ft | 131 kts | 19° |
| 2026-04-15 15:46 | 38.72547 | -9.16584 | 1274 ft | 130 kts | 18° |
| 2026-04-15 15:46 | 38.73410 | -9.16127 | 1123 ft | 139 kts | 18° |
| 2026-04-15 15:46 | 38.74312 | -9.15631 | 933 ft | 141 kts | 18° |
| 2026-04-15 15:46 | 38.75224 | -9.15152 | 688 ft | 141 kts | 18° |
| 2026-04-15 15:47 | 38.76125 | -9.14667 | 508 ft | 144 kts | 20° |
| 2026-04-15 15:47 | 38.77056 | -9.14168 | 349 ft | 141 kts | 20° |
| 2026-04-15 15:47 | 38.77832 | -9.13753 | 348 ft | 97 kts | 22° |
| 2026-04-15 15:47 | 38.78216 | -9.13536 | 352 ft | 39 kts | 30° |
| 2026-04-15 15:48 | 38.78349 | -9.13376 | 349 ft | 17 kts | 53° |
| 2026-04-15 15:48 | 38.78372 | -9.13293 | 353 ft | 10 kts | 108° |
| 2026-04-15 15:48 | 38.78314 | -9.13269 | 347 ft | 10 kts | 195° |
| 2026-04-15 15:48 | 38.78245 | -9.13300 | 350 ft | 11 kts | 200° |
| 2026-04-15 15:49 | 38.78171 | -9.13337 | 352 ft | 12 kts | 203° |
| 2026-04-15 15:49 | 38.78093 | -9.13381 | 348 ft | 13 kts | 204° |
| 2026-04-15 15:49 | 38.78009 | -9.13428 | 353 ft | 14 kts | 204° |
| 2026-04-15 15:49 | 38.77932 | -9.13471 | 346 ft | 10 kts | 202° |
| 2026-04-15 15:50 | 38.77868 | -9.13503 | 353 ft | 8 kts | 200° |
| 2026-04-15 15:50 | 38.77811 | -9.13533 | 347 ft | 10 kts | 203° |
| 2026-04-15 15:50 | 38.77733 | -9.13577 | 351 ft | 15 kts | 204° |
| 2026-04-15 15:50 | 38.77627 | -9.13633 | 351 ft | 18 kts | 203° |
| 2026-04-15 15:51 | 38.77514 | -9.13697 | 348 ft | 18 kts | 203° |
| 2026-04-15 15:51 | 38.77402 | -9.13756 | 351 ft | 17 kts | 201° |
| 2026-04-15 15:51 | 38.77325 | -9.13795 | 350 ft | 18 kts | 202° |
| 2026-04-15 15:51 | 38.77228 | -9.13847 | 351 ft | 8 kts | 204° |
| 2026-04-15 15:52 | 38.77165 | -9.13881 | 349 ft | 12 kts | 203° |
| 2026-04-15 15:52 | 38.77075 | -9.13893 | 345 ft | 15 kts | 168° |
| 2026-04-15 15:52 | 38.76970 | -9.13866 | 346 ft | 15 kts | 167° |
| 2026-04-15 15:52 | 38.76868 | -9.13838 | 348 ft | 15 kts | 169° |
| 2026-04-15 15:53 | 38.76766 | -9.13810 | 349 ft | 15 kts | 168° |
| 2026-04-15 15:53 | 38.76660 | -9.13782 | 349 ft | 14 kts | 165° |
| 2026-04-15 15:53 | 38.76618 | -9.13712 | 350 ft | 9 kts | 86° |
| 2026-04-15 15:53 | 38.76580 | -9.13661 | 351 ft | 9 kts | 171° |
| 2026-04-15 15:54 | 38.76541 | -9.13692 | 353 ft | 6 kts | 218° |
| 2026-04-15 15:54 | 38.76496 | -9.13692 | 346 ft | 7 kts | 168° |
| 2026-04-15 15:54 | 38.76467 | -9.13685 | 349 ft | 3 kts | 169° |
| 2026-04-15 15:54 | 38.76457 | -9.13683 | 352 ft | 0 kts | 169° |